createdAt,value
2018-07-22T00:01:39.329Z,83.30
2018-07-22T00:04:11.608Z,82.30
2018-07-22T00:06:44.071Z,82.20
2018-07-22T00:09:16.308Z,82.80
2018-07-22T00:11:48.808Z,83.20
2018-07-22T00:14:20.408Z,83.60
2018-07-22T00:16:51.990Z,83.80
2018-07-22T00:19:23.088Z,83.40
2018-07-22T00:21:55.448Z,83.80
2018-07-22T00:24:27.228Z,83.90
2018-07-22T00:26:59.328Z,82.80
2018-07-22T00:29:31.209Z,82.80
2018-07-22T00:32:03.548Z,83.40
2018-07-22T00:34:35.490Z,83.60
2018-07-22T00:37:07.808Z,83.70
2018-07-22T00:39:39.968Z,84.20
2018-07-22T00:42:11.829Z,84.10
2018-07-22T00:44:44.292Z,83.10
2018-07-22T00:47:15.608Z,83.40
2018-07-22T00:49:48.189Z,83.20
2018-07-22T00:52:19.808Z,84.00
2018-07-22T00:54:52.388Z,83.60
2018-07-22T00:57:24.469Z,82.30
2018-07-22T00:59:56.738Z,81.20
2018-07-22T01:02:28.847Z,81.30
2018-07-22T01:04:59.989Z,81.20
2018-07-22T01:07:31.848Z,81.00
2018-07-22T01:10:03.629Z,81.10
2018-07-22T01:12:35.820Z,81.70
2018-07-22T01:15:07.668Z,81.20
2018-07-22T01:17:39.987Z,80.50
2018-07-22T01:20:12.288Z,81.30
2018-07-22T01:22:44.267Z,80.40
2018-07-22T01:25:16.828Z,80.40
2018-07-22T01:27:48.667Z,80.80
2018-07-22T01:30:21.007Z,80.00
2018-07-22T01:32:53.015Z,79.60
2018-07-22T01:35:24.387Z,79.10
2018-07-22T01:37:55.888Z,79.30
2018-07-22T01:40:27.748Z,79.80
2018-07-22T01:43:00.488Z,78.60
2018-07-22T01:45:32.708Z,78.30
2018-07-22T01:48:05.007Z,78.70
2018-07-22T01:50:37.727Z,78.60
2018-07-22T01:53:09.387Z,78.40
2018-07-22T01:55:41.467Z,78.50
2018-07-22T01:58:13.267Z,78.40
2018-07-22T02:00:45.288Z,78.40
2018-07-22T02:03:17.048Z,77.70
2018-07-22T02:05:49.268Z,77.40
2018-07-22T02:08:21.427Z,77.60
2018-07-22T02:10:53.127Z,77.00
2018-07-22T02:13:25.748Z,76.80
2018-07-22T02:15:56.928Z,76.90
2018-07-22T02:18:28.147Z,76.80
2018-07-22T02:20:59.889Z,76.90
2018-07-22T02:23:32.047Z,76.90
2018-07-22T02:26:04.047Z,78.50
2018-07-22T02:28:36.207Z,77.50
2018-07-22T02:31:06.828Z,79.50
2018-07-22T02:33:38.968Z,78.50
2018-07-22T02:36:10.468Z,80.10
2018-07-22T02:38:42.848Z,80.90
2018-07-22T02:41:14.127Z,81.60
2018-07-22T02:43:45.988Z,80.80
2018-07-22T02:46:17.608Z,81.40
2018-07-22T02:48:49.647Z,81.50
2018-07-22T02:51:21.315Z,81.50
2018-07-22T02:53:54.068Z,80.80
2018-07-22T02:56:25.527Z,80.10
2018-07-22T02:58:58.188Z,80.70
2018-07-22T03:01:30.267Z,80.00
2018-07-22T03:04:01.707Z,80.50
2018-07-22T03:06:34.567Z,79.30
2018-07-22T03:09:07.649Z,80.10
2018-07-22T03:11:39.989Z,79.70
2018-07-22T03:14:11.868Z,79.90
2018-07-22T03:16:44.007Z,79.70
2018-07-22T03:19:15.409Z,79.80
2018-07-22T03:21:46.588Z,79.80
2018-07-22T03:24:18.425Z,80.00
2018-07-22T03:26:50.127Z,80.40
2018-07-22T03:29:22.207Z,81.10
2018-07-22T03:31:54.248Z,80.60
2018-07-22T03:34:26.032Z,80.20
2018-07-22T03:36:57.747Z,80.10
2018-07-22T03:39:29.748Z,80.50
2018-07-22T03:42:01.731Z,80.50
2018-07-22T03:44:33.589Z,80.30
2018-07-22T03:47:05.108Z,80.80
2018-07-22T03:49:36.308Z,80.50
2018-07-22T03:52:09.248Z,80.00
2018-07-22T03:54:41.428Z,80.30
2018-07-22T03:57:15.448Z,80.80
2018-07-22T03:59:47.428Z,79.50
2018-07-22T04:02:19.627Z,79.00
2018-07-22T04:04:51.308Z,78.70
2018-07-22T04:07:22.551Z,79.00
2018-07-22T04:09:55.428Z,78.90
2018-07-22T04:12:27.808Z,79.20
2018-07-22T04:14:59.628Z,79.40
2018-07-22T04:17:32.388Z,79.00
2018-07-22T04:20:03.508Z,78.70
2018-07-22T04:22:36.128Z,80.30
2018-07-22T04:25:07.508Z,79.40
2018-07-22T04:27:39.988Z,79.00
2018-07-22T04:30:12.208Z,78.60
2018-07-22T04:32:44.108Z,78.60
2018-07-22T04:35:15.888Z,78.00
2018-07-22T04:37:47.668Z,79.00
2018-07-22T04:40:20.168Z,78.50
2018-07-22T04:42:51.869Z,79.30
2018-07-22T04:45:23.907Z,79.90
2018-07-22T04:47:56.411Z,80.00
2018-07-22T04:50:28.048Z,80.50
2018-07-22T04:52:59.848Z,78.60
2018-07-22T04:55:31.368Z,78.50
2018-07-22T04:58:03.908Z,79.30
2018-07-22T05:00:35.667Z,79.40
2018-07-22T05:03:07.868Z,78.90
2018-07-22T05:05:39.369Z,78.40
2018-07-22T05:08:12.167Z,79.20
2018-07-22T05:10:44.207Z,79.10
2018-07-22T05:13:16.188Z,79.60
2018-07-22T05:15:47.307Z,79.80
2018-07-22T05:18:19.348Z,80.70
2018-07-22T05:20:51.468Z,80.10
2018-07-22T05:23:23.227Z,80.30
2018-07-22T05:25:55.888Z,80.20
2018-07-22T05:28:27.977Z,79.50
2018-07-22T05:31:00.290Z,79.70
2018-07-22T05:33:32.808Z,79.70
2018-07-22T05:36:04.531Z,79.80
2018-07-22T05:38:36.448Z,79.30
2018-07-22T05:41:08.608Z,78.90
2018-07-22T05:43:40.187Z,79.00
2018-07-22T05:46:11.929Z,79.10
2018-07-22T05:48:43.688Z,78.60
2018-07-22T05:51:15.947Z,79.00
2018-07-22T05:53:47.887Z,79.20
2018-07-22T05:56:20.908Z,79.30
2018-07-22T05:58:52.989Z,79.40
2018-07-22T06:01:25.348Z,79.80
2018-07-22T06:03:58.127Z,78.80
2018-07-22T06:06:29.788Z,78.90
2018-07-22T06:09:01.809Z,79.70
2018-07-22T06:11:33.607Z,78.80
2018-07-22T06:14:04.807Z,78.30
2018-07-22T06:16:37.014Z,78.20
2018-07-22T06:19:08.808Z,78.30
2018-07-22T06:21:40.948Z,77.70
2018-07-22T06:24:12.669Z,78.10
2018-07-22T06:26:44.468Z,77.20
2018-07-22T06:29:16.648Z,77.50
2018-07-22T06:31:49.308Z,77.40
2018-07-22T06:34:20.588Z,77.20
2018-07-22T06:36:52.488Z,77.00
2018-07-22T06:39:24.628Z,77.30
2018-07-22T06:41:57.271Z,77.10
2018-07-22T06:44:30.129Z,77.00
2018-07-22T06:47:01.289Z,76.10
2018-07-22T06:49:33.711Z,76.10
2018-07-22T06:52:05.528Z,75.80
2018-07-22T06:54:37.968Z,75.20
2018-07-22T06:57:10.461Z,75.00
2018-07-22T06:59:42.872Z,74.60
2018-07-22T07:02:14.868Z,74.60
2018-07-22T07:04:46.548Z,74.70
2018-07-22T07:07:18.288Z,73.10
2018-07-22T07:09:50.085Z,72.30
2018-07-22T07:12:21.846Z,73.80
2018-07-22T07:14:54.926Z,72.50
2018-07-22T07:17:26.726Z,73.40
2018-07-22T07:19:59.606Z,73.10
2018-07-22T07:22:32.386Z,72.20
2018-07-22T07:25:04.326Z,72.20
2018-07-22T07:27:36.607Z,71.00
2018-07-22T07:30:08.487Z,70.60
2018-07-22T07:32:40.787Z,71.10
2018-07-22T07:35:13.767Z,71.80
2018-07-22T07:37:46.829Z,69.70
2018-07-22T07:40:18.326Z,69.50
2018-07-22T07:42:50.446Z,69.00
2018-07-22T07:45:22.706Z,69.20
2018-07-22T07:47:54.606Z,70.30
2018-07-22T07:50:26.706Z,70.50
2018-07-22T07:52:58.766Z,70.70
2018-07-22T07:55:31.246Z,70.30
2018-07-22T07:58:03.027Z,69.60
2018-07-22T08:00:35.230Z,69.80
2018-07-22T08:03:07.189Z,70.00
2018-07-22T08:05:39.307Z,71.10
2018-07-22T08:08:10.806Z,70.50
2018-07-22T08:10:42.926Z,69.50
2018-07-22T08:13:14.766Z,70.50
2018-07-22T08:15:46.611Z,71.00
2018-07-22T08:18:19.685Z,70.50
2018-07-22T08:20:51.566Z,70.20
2018-07-22T08:23:24.306Z,71.30
2018-07-22T08:25:56.066Z,69.70
2018-07-22T08:28:39.149Z,69.40
2018-07-22T08:31:11.186Z,69.70
2018-07-22T08:33:43.046Z,68.70
2018-07-22T08:36:14.826Z,67.50
2018-07-22T08:38:46.646Z,66.90
2018-07-22T08:41:18.583Z,68.00
2018-07-22T08:43:50.866Z,67.40
2018-07-22T08:46:22.846Z,67.60
2018-07-22T08:48:55.026Z,67.00
2018-07-22T08:51:26.786Z,66.40
2018-07-22T08:53:58.706Z,66.70
2018-07-22T08:56:31.186Z,66.70
2018-07-22T08:59:03.035Z,67.20
2018-07-22T09:01:35.050Z,65.90
2018-07-22T09:04:07.306Z,65.90
2018-07-22T09:06:39.526Z,66.10
2018-07-22T09:09:12.972Z,65.90
2018-07-22T09:11:45.293Z,63.90
2018-07-22T09:14:17.627Z,64.40
2018-07-22T09:16:49.267Z,64.10
2018-07-22T09:19:20.747Z,64.10
2018-07-22T09:21:53.006Z,64.10
2018-07-22T09:24:24.746Z,64.50
2018-07-22T09:26:56.933Z,64.60
2018-07-22T09:29:29.686Z,64.30
2018-07-22T09:32:01.127Z,64.40
2018-07-22T09:34:33.306Z,64.60
2018-07-22T09:37:05.106Z,64.90
2018-07-22T09:39:38.006Z,65.20
2018-07-22T09:42:10.827Z,65.90
2018-07-22T09:44:42.766Z,66.00
2018-07-22T09:47:15.027Z,67.10
2018-07-22T09:49:46.286Z,66.70
2018-07-22T09:52:17.546Z,66.40
2018-07-22T09:54:49.578Z,67.30
2018-07-22T09:57:22.187Z,66.60
2018-07-22T09:59:54.028Z,66.50
2018-07-22T10:02:26.407Z,65.20
2018-07-22T10:04:58.226Z,65.50
2018-07-22T10:07:30.386Z,65.60
2018-07-22T10:10:02.266Z,65.50
2018-07-22T10:12:34.247Z,68.40
2018-07-22T10:15:07.486Z,71.50
2018-07-22T10:17:39.258Z,73.30
2018-07-22T10:20:11.527Z,74.00
2018-07-22T10:22:43.506Z,73.80
2018-07-22T10:25:16.007Z,73.80
2018-07-22T10:27:48.006Z,75.60
2018-07-22T10:30:19.726Z,77.20
2018-07-22T10:32:51.426Z,78.80
2018-07-22T10:35:23.967Z,79.50
2018-07-22T10:37:55.846Z,80.70
2018-07-22T10:40:28.327Z,81.00
2018-07-22T10:43:00.486Z,81.20
2018-07-22T10:45:32.705Z,82.60
2018-07-22T10:48:04.188Z,80.50
2018-07-22T10:50:36.146Z,80.70
2018-07-22T10:53:07.987Z,80.90
2018-07-22T10:55:40.726Z,81.60
2018-07-22T10:58:12.946Z,81.40
2018-07-22T11:00:44.946Z,80.20
2018-07-22T11:03:17.741Z,81.60
2018-07-22T11:05:48.807Z,81.00
2018-07-22T11:08:21.326Z,83.10
2018-07-22T11:10:53.046Z,81.90
2018-07-22T11:13:25.166Z,81.80
2018-07-22T11:15:56.826Z,83.40
2018-07-22T11:18:28.748Z,82.80
2018-07-22T11:21:00.796Z,83.00
2018-07-22T11:23:33.167Z,83.80
2018-07-22T11:26:05.586Z,84.10
2018-07-22T11:28:37.997Z,84.20
2018-07-22T11:31:09.446Z,84.00
2018-07-22T11:33:41.645Z,84.20
2018-07-22T11:36:14.086Z,84.30
2018-07-22T11:38:45.465Z,84.60
2018-07-22T11:41:17.966Z,85.50
2018-07-22T11:43:49.857Z,85.00
2018-07-22T11:46:22.547Z,85.70
2018-07-22T11:48:54.685Z,84.80
2018-07-22T11:51:26.725Z,84.50
2018-07-22T11:53:59.266Z,85.90
2018-07-22T11:56:32.045Z,86.10
2018-07-22T11:59:03.465Z,85.10
2018-07-22T12:01:35.742Z,84.10
2018-07-22T12:04:06.546Z,85.40
2018-07-22T12:06:37.825Z,85.50
2018-07-22T12:09:12.426Z,85.10
2018-07-22T12:11:44.628Z,84.40
2018-07-22T12:14:17.385Z,85.20
2018-07-22T12:16:49.885Z,85.00
2018-07-22T12:19:21.426Z,83.70
2018-07-22T12:21:54.025Z,84.10
2018-07-22T12:24:25.845Z,84.10
2018-07-22T12:26:58.485Z,83.60
2018-07-22T12:29:31.725Z,83.10
2018-07-22T12:32:03.671Z,84.20
2018-07-22T12:34:36.305Z,84.30
2018-07-22T12:37:09.226Z,83.90
2018-07-22T12:39:41.125Z,83.40
2018-07-22T12:42:13.686Z,82.70
2018-07-22T12:44:46.446Z,82.60
2018-07-22T12:47:18.505Z,83.00
2018-07-22T12:49:50.585Z,83.40
2018-07-22T12:52:22.625Z,83.60
2018-07-22T12:54:55.267Z,82.00
2018-07-22T12:57:27.785Z,82.40
2018-07-22T12:59:59.545Z,82.50
2018-07-22T13:02:31.686Z,80.40
2018-07-22T13:05:03.586Z,81.20
2018-07-22T13:07:35.825Z,80.20
2018-07-22T13:10:08.330Z,80.10
2018-07-22T13:12:39.986Z,80.30
2018-07-22T13:15:12.286Z,79.90
2018-07-22T13:17:44.466Z,79.70
2018-07-22T13:20:16.846Z,79.00
2018-07-22T13:22:48.966Z,79.50
2018-07-22T13:25:21.025Z,79.70
2018-07-22T13:30:23.049Z,79.30
2018-07-22T13:32:54.926Z,77.90
2018-07-22T13:35:27.287Z,77.90
2018-07-22T13:37:59.078Z,78.20
2018-07-22T13:40:31.205Z,76.90
2018-07-22T13:43:03.506Z,77.30
2018-07-22T13:45:35.016Z,77.20
2018-07-22T13:48:06.786Z,77.00
2018-07-22T13:50:38.945Z,76.50
2018-07-22T13:53:11.526Z,76.80
2018-07-22T13:55:43.726Z,77.00
2018-07-22T13:58:15.245Z,76.90
2018-07-22T14:00:47.129Z,76.40
2018-07-22T14:03:19.385Z,76.10
2018-07-22T14:05:51.746Z,76.50
2018-07-22T14:08:23.166Z,75.90
2018-07-22T14:10:56.166Z,75.20
2018-07-22T14:15:58.466Z,73.30
2018-07-22T14:18:30.366Z,72.70
2018-07-22T14:21:02.186Z,73.40
2018-07-22T14:23:33.229Z,73.10
2018-07-22T14:26:05.807Z,72.30
2018-07-22T14:28:37.286Z,72.60
2018-07-22T14:31:09.075Z,73.20
2018-07-22T14:33:40.972Z,72.70
2018-07-22T14:36:12.526Z,72.00
2018-07-22T14:38:44.065Z,71.70
2018-07-22T14:41:15.668Z,71.90
2018-07-22T14:43:47.985Z,72.70
2018-07-22T14:46:20.685Z,71.90
2018-07-22T14:48:52.466Z,72.30
2018-07-22T14:51:24.786Z,71.40
2018-07-22T14:53:57.045Z,69.00
2018-07-22T14:56:28.966Z,66.10
2018-07-22T14:59:00.345Z,63.20
2018-07-22T15:01:32.587Z,62.10
2018-07-22T15:04:04.046Z,62.10
2018-07-22T15:06:36.209Z,60.30
2018-07-22T15:09:09.365Z,61.70
2018-07-22T15:11:41.225Z,61.90
2018-07-22T15:14:13.527Z,61.40
2018-07-22T15:16:45.733Z,59.20
2018-07-22T15:19:17.591Z,59.70
2018-07-22T15:21:50.371Z,59.70
2018-07-22T15:24:22.291Z,59.30
2018-07-22T15:26:54.215Z,58.10
2018-07-22T15:29:26.344Z,57.20
2018-07-22T15:31:58.376Z,57.40
2018-07-22T15:34:30.571Z,56.50
2018-07-22T15:37:02.573Z,56.80
2018-07-22T15:39:34.233Z,57.60
2018-07-22T15:42:06.771Z,57.60
2018-07-22T15:44:39.731Z,57.50
2018-07-22T15:47:11.311Z,57.50
2018-07-22T15:49:43.373Z,58.10
2018-07-22T15:52:15.275Z,59.00
2018-07-22T15:54:47.071Z,60.10
2018-07-22T15:57:19.555Z,60.90
2018-07-22T15:59:51.052Z,61.00
2018-07-22T16:02:23.733Z,61.60
2018-07-22T16:04:55.813Z,62.30
2018-07-22T16:07:27.912Z,63.20
2018-07-22T16:10:00.372Z,64.30
2018-07-22T16:12:32.153Z,64.70
2018-07-22T16:15:04.253Z,65.60
2018-07-22T16:17:36.332Z,65.20
2018-07-22T16:20:08.470Z,65.70
2018-07-22T16:22:40.510Z,65.70
2018-07-22T16:25:12.951Z,65.90
2018-07-22T16:27:45.351Z,65.30
2018-07-22T16:30:17.209Z,65.00
2018-07-22T16:32:49.750Z,64.80
2018-07-22T16:35:21.409Z,65.60
2018-07-22T16:37:53.189Z,65.20
2018-07-22T16:40:24.929Z,65.40
2018-07-22T16:42:56.890Z,65.60
2018-07-22T16:45:28.110Z,66.00
2018-07-22T16:47:59.330Z,65.70
2018-07-22T16:50:31.610Z,65.90
2018-07-22T16:53:04.294Z,65.90
2018-07-22T16:55:36.050Z,65.20
2018-07-22T16:58:08.471Z,65.60
2018-07-22T17:00:41.631Z,66.50
2018-07-22T17:03:13.390Z,66.60
2018-07-22T17:05:46.971Z,66.20
2018-07-22T17:08:19.371Z,65.70
2018-07-22T17:10:52.270Z,65.90
2018-07-22T17:13:23.890Z,67.20
2018-07-22T17:15:56.711Z,68.40
2018-07-22T17:18:29.230Z,69.60
2018-07-22T17:21:01.131Z,70.60
2018-07-22T17:23:33.454Z,70.30
2018-07-22T17:26:06.431Z,68.60
2018-07-22T17:28:38.250Z,69.10
2018-07-22T17:31:10.942Z,68.80
2018-07-22T17:33:43.650Z,69.40
2018-07-22T17:36:15.470Z,71.30
2018-07-22T17:38:47.390Z,71.50
2018-07-22T17:41:19.210Z,71.90
2018-07-22T17:43:51.390Z,72.80
2018-07-22T17:46:22.852Z,72.20
2018-07-22T17:48:55.713Z,72.20
2018-07-22T17:51:28.374Z,73.20
2018-07-22T17:53:59.895Z,73.90
2018-07-22T17:56:32.508Z,72.30
2018-07-22T17:59:04.171Z,73.20
2018-07-22T18:01:36.467Z,73.20
2018-07-22T18:04:08.187Z,73.90
2018-07-22T18:06:40.248Z,73.50
2018-07-22T18:09:11.527Z,75.00
2018-07-22T18:11:44.128Z,74.70
2018-07-22T18:14:15.557Z,74.20
2018-07-22T18:16:48.369Z,74.80
2018-07-22T18:19:21.087Z,74.50
2018-07-22T18:21:53.346Z,75.40
2018-07-22T18:24:25.326Z,75.60
2018-07-22T18:26:56.959Z,75.70
2018-07-22T18:29:28.667Z,74.00
2018-07-22T18:32:00.466Z,74.80
2018-07-22T18:34:32.788Z,74.40
2018-07-22T18:37:06.341Z,73.40
2018-07-22T18:39:39.226Z,75.20
2018-07-22T18:42:11.087Z,76.50
2018-07-22T18:44:44.446Z,77.50
2018-07-22T18:47:16.908Z,78.00
2018-07-22T18:49:49.435Z,78.30
2018-07-22T18:52:21.266Z,79.40
2018-07-22T18:54:53.879Z,79.40
2018-07-22T18:57:25.749Z,79.70
2018-07-22T18:59:58.288Z,80.30
2018-07-22T19:02:30.767Z,80.10
2018-07-22T19:05:02.628Z,79.50
2018-07-22T19:07:35.247Z,79.30
2018-07-22T19:10:08.867Z,78.80
2018-07-22T19:12:40.927Z,79.80
2018-07-22T19:15:13.088Z,80.10
2018-07-22T19:17:46.387Z,80.20
2018-07-22T19:20:18.927Z,80.10
2018-07-22T19:22:50.739Z,80.40
2018-07-22T19:25:23.068Z,80.40
2018-07-22T19:27:55.785Z,80.70
2018-07-22T19:30:27.911Z,80.30
2018-07-22T19:33:01.279Z,81.00
2018-07-22T19:35:34.240Z,81.50
2018-07-22T19:38:07.420Z,82.10
2018-07-22T19:40:39.320Z,82.00
2018-07-22T19:43:12.146Z,81.80
2018-07-22T19:45:44.878Z,81.90
2018-07-22T19:48:16.562Z,81.80
2018-07-22T19:50:47.839Z,81.90
2018-07-22T19:53:20.518Z,82.00
2018-07-22T19:55:53.139Z,81.50
2018-07-22T19:58:25.359Z,81.60
2018-07-22T20:00:57.940Z,81.40
2018-07-22T20:03:30.459Z,82.40
2018-07-22T20:06:02.420Z,83.00
2018-07-22T20:08:35.041Z,82.60
2018-07-22T20:11:06.821Z,82.30
2018-07-22T20:13:39.141Z,82.80
2018-07-22T20:16:11.179Z,82.70
2018-07-22T20:18:43.342Z,83.20
2018-07-22T20:21:14.900Z,83.50
2018-07-22T20:23:46.763Z,84.00
2018-07-22T20:26:18.979Z,84.00
2018-07-22T20:28:51.502Z,83.80
2018-07-22T20:31:23.999Z,83.00
2018-07-22T20:33:56.139Z,83.90
2018-07-22T20:36:27.659Z,84.40
2018-07-22T20:38:59.671Z,84.60
2018-07-22T20:41:32.000Z,84.40
2018-07-22T20:44:04.819Z,84.40
2018-07-22T20:46:37.499Z,84.60
2018-07-22T20:49:09.100Z,84.50
2018-07-22T20:51:42.120Z,84.90
2018-07-22T20:54:14.380Z,84.00
2018-07-22T20:56:46.569Z,84.50
2018-07-22T20:59:19.242Z,83.50
2018-07-22T21:01:51.801Z,83.60
2018-07-22T21:04:24.160Z,82.80
2018-07-22T21:06:56.419Z,83.60
2018-07-22T21:09:27.359Z,84.70
2018-07-22T21:13:09.580Z,83.40
2018-07-22T21:15:41.485Z,83.60
2018-07-22T21:18:13.880Z,84.30
2018-07-22T21:20:46.160Z,85.30
2018-07-22T21:23:17.901Z,86.10
2018-07-22T21:25:49.481Z,86.20
2018-07-22T21:28:21.260Z,86.20
2018-07-22T21:30:53.360Z,87.40
2018-07-22T21:33:25.867Z,87.00
2018-07-22T21:35:58.140Z,86.20
2018-07-22T21:38:30.440Z,86.20
2018-07-22T21:41:01.760Z,86.50
2018-07-22T21:43:34.561Z,86.00
2018-07-22T21:46:06.121Z,85.60
2018-07-22T21:48:38.879Z,85.60
2018-07-22T21:51:11.600Z,84.90
2018-07-22T21:56:14.780Z,84.70
2018-07-22T21:58:46.400Z,84.40
2018-07-22T22:01:18.821Z,84.30
2018-07-22T22:03:48.983Z,84.60
2018-07-22T22:06:21.161Z,84.50
2018-07-22T22:08:53.260Z,84.80
2018-07-22T22:11:25.301Z,85.50
2018-07-22T22:13:57.580Z,85.50
2018-07-22T22:16:29.961Z,84.90
2018-07-22T22:19:01.921Z,84.90
2018-07-22T22:21:34.099Z,85.10
2018-07-22T22:24:06.859Z,84.80
2018-07-22T22:26:38.701Z,84.30
2018-07-22T22:29:11.159Z,84.10
2018-07-22T22:31:43.100Z,84.30
2018-07-22T22:34:15.539Z,84.50
2018-07-22T22:36:48.179Z,85.00
2018-07-22T22:39:19.781Z,84.80
2018-07-22T22:41:51.940Z,84.70
2018-07-22T22:44:23.919Z,84.50
2018-07-22T22:46:56.160Z,84.80
2018-07-22T22:49:28.599Z,85.00
2018-07-22T22:52:00.100Z,85.30
2018-07-22T22:54:32.539Z,85.30
2018-07-22T22:57:05.339Z,85.80
2018-07-22T22:59:37.399Z,85.10
2018-07-22T23:02:09.739Z,85.00
2018-07-22T23:04:41.982Z,85.10
2018-07-22T23:07:13.762Z,84.90
2018-07-22T23:09:45.319Z,84.60
2018-07-22T23:12:17.301Z,85.00
2018-07-22T23:14:49.239Z,85.60
2018-07-22T23:17:21.159Z,85.70
2018-07-22T23:19:53.639Z,85.10
2018-07-22T23:22:25.099Z,85.00
2018-07-22T23:24:57.759Z,85.20
2018-07-22T23:27:30.719Z,85.20
2018-07-22T23:30:02.500Z,85.20
2018-07-22T23:32:35.339Z,85.40
2018-07-22T23:35:07.579Z,85.30
2018-07-22T23:37:39.742Z,85.80
2018-07-22T23:40:12.219Z,85.10
2018-07-22T23:42:44.300Z,84.70
2018-07-22T23:45:16.221Z,84.80
2018-07-22T23:47:48.919Z,85.40
2018-07-22T23:50:20.280Z,86.00
2018-07-22T23:52:51.480Z,86.30
2018-07-22T23:55:23.679Z,87.20
2018-07-22T23:57:55.999Z,86.70
